Time;durP1;ratioP1;P1;durP2;ratioP2;P2;SDS_P1;SDS_P2;PMS_P1;PMS_P2;Temp;Humidity;BMP_temperature;BMP_pressure;BME280_temperature;BME280_humidity;BME280_pressure;Samples;Min_cycle;Max_cycle;Signal;HPM_P1;HPM_P2
2021/05/29 00:01:32;;;;;;;15.67;4.20;;;19.30;99.90;;;;;;5057830;28;20194;-75
2021/05/29 00:04:00;;;;;;;18.43;4.97;;;19.40;99.90;;;;;;5056594;28;20193;-75
2021/05/29 00:06:28;;;;;;;17.43;4.40;;;19.30;99.90;;;;;;5060045;28;20241;-75
2021/05/29 00:08:55;;;;;;;15.93;4.37;;;19.40;99.90;;;;;;5055517;28;20214;-75
2021/05/29 00:11:21;;;;;;;13.27;4.00;;;19.30;99.90;;;;;;5060296;28;20179;-77
2021/05/29 00:13:48;;;;;;;15.27;4.40;;;19.30;99.90;;;;;;5057660;28;20705;-74
2021/05/29 00:16:14;;;;;;;21.33;4.67;;;19.40;99.90;;;;;;5044208;28;20191;-74
2021/05/29 00:18:41;;;;;;;17.00;4.73;;;19.50;99.90;;;;;;5040427;28;21008;-74
2021/05/29 00:21:08;;;;;;;16.80;4.60;;;19.20;99.90;;;;;;5053246;28;20199;-74
2021/05/29 00:23:35;;;;;;;20.10;4.70;;;19.30;99.90;;;;;;5056977;28;20228;-75
2021/05/29 00:26:01;;;;;;;21.83;4.77;;;19.30;99.90;;;;;;5053445;28;20215;-74
2021/05/29 00:28:30;;;;;;;24.27;4.87;;;19.10;99.90;;;;;;5055767;28;20252;-75
2021/05/29 00:30:56;;;;;;;22.97;4.73;;;19.20;99.90;;;;;;5039264;28;20187;-75
2021/05/29 00:33:22;;;;;;;17.73;5.10;;;19.10;99.90;;;;;;5059821;28;20510;-75
2021/05/29 00:35:49;;;;;;;22.23;5.00;;;19.10;99.90;;;;;;5059332;28;20201;-75
2021/05/29 00:38:15;;;;;;;19.60;4.77;;;19.10;99.90;;;;;;5056410;28;20717;-75
2021/05/29 00:40:41;;;;;;;19.57;4.87;;;19.10;99.90;;;;;;5056961;28;20695;-74
2021/05/29 00:43:08;;;;;;;21.43;4.53;;;19.00;99.90;;;;;;5061653;28;20214;-75
2021/05/29 00:45:34;;;;;;;18.23;5.20;;;19.10;99.90;;;;;;5063557;28;21090;-75
2021/05/29 00:48:02;;;;;;;20.83;4.70;;;19.20;99.90;;;;;;5042058;28;20551;-74
2021/05/29 00:50:33;;;;;;;15.07;4.67;;;19.30;99.90;;;;;;5043991;28;20197;-75
2021/05/29 00:53:01;;;;;;;24.90;5.13;;;19.40;99.90;;;;;;5063115;28;20516;-74
2021/05/29 00:55:28;;;;;;;20.50;5.30;;;19.50;99.90;;;;;;5060009;28;20565;-75
2021/05/29 00:57:56;;;;;;;23.63;5.60;;;19.30;99.90;;;;;;5063031;28;20203;-74
2021/05/29 01:00:29;;;;;;;24.03;4.77;;;19.30;99.90;;;;;;5059609;28;20705;-74
2021/05/29 01:02:56;;;;;;;16.83;4.10;;;19.20;99.90;;;;;;5046106;28;20195;-74
2021/05/29 01:05:23;;;;;;;20.70;4.70;;;19.10;99.90;;;;;;5060125;28;20221;-74
2021/05/29 01:07:52;;;;;;;21.27;5.00;;;19.10;99.90;;;;;;5061321;28;20295;-73
2021/05/29 01:10:22;;;;;;;17.73;4.40;;;19.20;99.90;;;;;;5063185;28;20195;-74
2021/05/29 01:12:54;;;;;;;19.00;4.43;;;19.10;99.90;;;;;;5060899;28;20627;-75
2021/05/29 01:15:21;;;;;;;16.60;4.50;;;19.20;99.90;;;;;;5057590;28;20277;-74
2021/05/29 01:17:49;;;;;;;23.27;5.10;;;19.30;99.90;;;;;;5048558;28;20214;-74
2021/05/29 01:20:17;;;;;;;19.43;4.90;;;19.20;99.90;;;;;;5063662;28;20536;-74
2021/05/29 01:22:51;;;;;;;18.03;5.20;;;19.10;99.90;;;;;;5064286;28;20678;-74
2021/05/29 01:25:36;;;;;;;18.70;4.33;;;19.10;99.90;;;;;;5060886;28;20914;-75
2021/05/29 01:28:06;;;;;;;21.60;4.87;;;18.90;99.90;;;;;;5063846;28;20623;-73
2021/05/29 01:30:47;;;;;;;16.47;4.70;;;18.90;99.90;;;;;;5059744;28;20200;-75
2021/05/29 01:33:21;;;;;;;16.30;4.57;;;19.00;99.90;;;;;;5063931;28;20191;-74
2021/05/29 01:35:48;;;;;;;17.60;4.43;;;18.80;99.90;;;;;;5044408;28;20186;-74
2021/05/29 01:38:18;;;;;;;20.17;4.70;;;18.70;99.90;;;;;;5038219;28;20315;-74
2021/05/29 01:40:45;;;;;;;18.20;4.70;;;18.70;99.90;;;;;;5064049;28;20300;-74
2021/05/29 01:43:15;;;;;;;18.43;5.03;;;18.50;99.90;;;;;;5058650;28;20270;-75
2021/05/29 01:45:44;;;;;;;19.90;4.57;;;18.80;99.90;;;;;;5060024;28;20647;-74
2021/05/29 01:48:11;;;;;;;18.57;4.63;;;18.60;99.90;;;;;;5036055;28;20239;-75
2021/05/29 01:50:46;;;;;;;20.07;4.93;;;18.80;99.90;;;;;;5058156;28;20214;-74
2021/05/29 01:53:18;;;;;;;20.43;5.33;;;19.00;99.90;;;;;;5074456;28;20193;-75
2021/05/29 01:55:46;;;;;;;22.63;5.33;;;19.10;99.90;;;;;;5054967;28;20662;-74
2021/05/29 01:58:15;;;;;;;21.08;4.90;;;19.00;99.90;;;;;;5055064;28;20440;-76
2021/05/29 02:00:45;;;;;;;14.13;4.33;;;18.80;99.90;;;;;;5059818;28;20488;-72
2021/05/29 02:03:14;;;;;;;17.60;5.20;;;18.70;99.90;;;;;;5064620;28;20190;-71
2021/05/29 02:05:42;;;;;;;17.13;4.57;;;18.50;99.90;;;;;;5070634;28;20297;-71
2021/05/29 02:08:12;;;;;;;17.60;5.30;;;18.70;99.90;;;;;;5054738;28;20222;-74
2021/05/29 02:10:43;;;;;;;14.53;4.60;;;18.70;99.90;;;;;;5057847;28;20441;-71
2021/05/29 02:13:31;;;;;;;16.93;4.77;;;18.70;99.90;;;;;;5058092;28;20898;-72
2021/05/29 02:16:11;;;;;;;17.33;4.80;;;18.50;99.90;;;;;;5063008;28;20205;-72
2021/05/29 02:18:46;;;;;;;15.13;4.43;;;18.50;99.90;;;;;;5056798;28;20206;-73
2021/05/29 02:21:18;;;;;;;17.57;5.07;;;18.50;99.90;;;;;;5056628;28;20212;-73
2021/05/29 02:23:50;;;;;;;21.20;6.03;;;18.60;99.90;;;;;;5061246;28;20603;-73
2021/05/29 02:26:24;;;;;;;26.23;5.03;;;18.50;99.90;;;;;;5060353;28;20720;-73
2021/05/29 02:28:54;;;;;;;17.63;4.87;;;18.60;99.90;;;;;;5056248;28;20195;-72
2021/05/29 02:31:21;;;;;;;17.20;4.97;;;18.60;99.90;;;;;;5058663;28;20292;-72
2021/05/29 02:33:48;;;;;;;18.10;5.27;;;18.60;99.90;;;;;;5058039;28;20593;-73
2021/05/29 02:36:15;;;;;;;16.53;5.43;;;18.70;99.90;;;;;;5042822;28;20310;-73
2021/05/29 02:38:41;;;;;;;21.37;5.67;;;18.80;99.90;;;;;;5083012;28;20191;-73
2021/05/29 02:41:11;;;;;;;18.60;5.13;;;18.90;99.90;;;;;;5058305;28;20238;-74
2021/05/29 02:43:39;;;;;;;25.03;5.57;;;18.90;99.90;;;;;;5059863;28;20659;-72
2021/05/29 02:46:06;;;;;;;16.43;4.70;;;18.80;99.90;;;;;;5060357;28;20759;-73
2021/05/29 02:48:32;;;;;;;16.83;5.23;;;18.80;99.90;;;;;;5045967;28;20858;-72
2021/05/29 02:50:59;;;;;;;17.50;5.43;;;18.80;99.90;;;;;;5055993;28;20726;-72
2021/05/29 02:53:25;;;;;;;17.90;5.47;;;19.00;99.90;;;;;;5061617;28;20266;-72
2021/05/29 02:55:51;;;;;;;12.53;5.00;;;19.10;99.90;;;;;;5062013;28;20653;-74
2021/05/29 02:58:17;;;;;;;17.33;5.53;;;19.10;99.90;;;;;;5058581;28;20196;-73
2021/05/29 03:00:46;;;;;;;17.67;5.13;;;19.00;99.90;;;;;;5060036;28;20674;-73
2021/05/29 03:03:14;;;;;;;17.70;5.30;;;19.10;99.90;;;;;;5083421;28;20183;-72
2021/05/29 03:05:46;;;;;;;20.93;5.50;;;19.10;99.90;;;;;;5052125;28;20315;-73
2021/05/29 03:08:19;;;;;;;21.90;5.53;;;19.10;99.90;;;;;;5061793;28;20183;-72
2021/05/29 03:10:46;;;;;;;24.90;5.37;;;19.20;99.90;;;;;;5058166;28;20202;-73
2021/05/29 03:13:14;;;;;;;19.73;5.37;;;19.10;99.90;;;;;;5059523;28;20268;-71
2021/05/29 03:15:41;;;;;;;18.23;5.13;;;19.20;99.90;;;;;;5054902;28;20568;-73
2021/05/29 03:18:07;;;;;;;18.10;5.13;;;19.30;99.90;;;;;;5041508;28;20512;-74
2021/05/29 03:20:35;;;;;;;17.27;5.17;;;19.10;99.90;;;;;;5054899;28;20742;-74
2021/05/29 03:23:06;;;;;;;18.43;5.40;;;19.10;99.90;;;;;;5056994;28;20277;-74
2021/05/29 03:25:33;;;;;;;14.23;4.63;;;19.20;99.90;;;;;;5052505;28;20199;-74
2021/05/29 03:28:00;;;;;;;18.23;5.63;;;19.10;99.90;;;;;;5056921;28;20222;-72
2021/05/29 03:30:29;;;;;;;14.33;5.20;;;19.20;99.90;;;;;;5059426;28;20203;-70
2021/05/29 03:32:57;;;;;;;14.90;5.33;;;19.40;99.90;;;;;;5056670;28;20199;-72
2021/05/29 03:35:24;;;;;;;23.87;6.13;;;19.30;99.90;;;;;;5057067;28;20194;-73
2021/05/29 03:37:51;;;;;;;15.77;5.73;;;19.40;99.90;;;;;;5060860;28;20644;-72
2021/05/29 03:40:18;;;;;;;22.73;6.00;;;19.40;99.90;;;;;;5058540;28;20202;-73
2021/05/29 03:42:46;;;;;;;20.57;6.07;;;19.40;99.90;;;;;;5060820;28;20258;-71
2021/05/29 03:45:17;;;;;;;15.87;5.73;;;19.40;99.90;;;;;;5051541;28;20259;-72
2021/05/29 03:47:46;;;;;;;19.40;6.23;;;19.40;99.90;;;;;;5056670;28;20533;-71
2021/05/29 03:50:16;;;;;;;20.00;5.87;;;19.30;99.90;;;;;;5040630;28;20616;-72
2021/05/29 03:52:43;;;;;;;16.57;5.93;;;19.40;99.90;;;;;;5057798;28;20191;-71
2021/05/29 03:55:12;;;;;;;16.27;5.40;;;19.40;99.90;;;;;;5058696;28;20189;-71
2021/05/29 03:57:38;;;;;;;15.33;5.40;;;19.40;99.90;;;;;;5055738;28;20187;-72
2021/05/29 04:00:09;;;;;;;17.17;5.47;;;19.40;99.90;;;;;;5054774;28;20203;-75
2021/05/29 04:02:35;;;;;;;20.03;5.60;;;19.50;99.90;;;;;;5062637;28;20195;-74
2021/05/29 04:05:03;;;;;;;17.50;5.17;;;19.40;99.90;;;;;;5059377;28;20226;-74
2021/05/29 04:07:29;;;;;;;20.77;5.27;;;19.30;99.90;;;;;;5041787;28;20293;-74
2021/05/29 04:09:56;;;;;;;21.60;6.30;;;19.40;99.90;;;;;;5057810;28;20202;-74
2021/05/29 04:12:22;;;;;;;16.87;5.57;;;19.30;99.90;;;;;;5057517;28;20193;-73
2021/05/29 04:14:49;;;;;;;18.10;5.33;;;19.40;99.90;;;;;;5058602;28;20194;-74
2021/05/29 04:17:15;;;;;;;19.63;6.33;;;19.50;99.90;;;;;;5059933;28;20225;-74
2021/05/29 04:19:42;;;;;;;17.90;6.37;;;19.60;99.90;;;;;;5058718;28;20198;-74
2021/05/29 04:22:08;;;;;;;17.00;5.73;;;19.70;99.90;;;;;;5058842;28;20276;-73
2021/05/29 04:24:35;;;;;;;19.57;5.87;;;19.80;99.90;;;;;;5057144;28;20203;-74
2021/05/29 04:27:01;;;;;;;16.03;5.30;;;19.90;99.90;;;;;;5056590;28;20662;-74
2021/05/29 04:29:30;;;;;;;19.37;5.73;;;19.80;99.90;;;;;;5046262;28;20202;-75
2021/05/29 04:31:56;;;;;;;17.73;5.53;;;19.90;99.90;;;;;;5047248;28;20179;-74
2021/05/29 04:34:22;;;;;;;16.33;5.23;;;20.10;99.90;;;;;;5062992;28;20542;-74
2021/05/29 04:36:48;;;;;;;17.67;5.93;;;20.10;99.90;;;;;;5038977;28;20474;-74
2021/05/29 04:39:15;;;;;;;14.53;5.23;;;20.10;99.90;;;;;;5039070;28;20202;-74
2021/05/29 04:41:41;;;;;;;16.80;5.77;;;20.10;99.90;;;;;;5059919;28;20624;-74
2021/05/29 04:44:07;;;;;;;17.57;6.40;;;20.10;99.90;;;;;;5061298;28;20910;-74
2021/05/29 04:46:38;;;;;;;22.63;6.00;;;20.30;99.90;;;;;;5056914;28;20234;-73
2021/05/29 04:49:08;;;;;;;15.10;5.77;;;20.30;99.90;;;;;;5057315;28;20283;-73
2021/05/29 04:51:34;;;;;;;12.43;5.13;;;20.30;99.90;;;;;;5055232;28;20191;-72
2021/05/29 04:54:00;;;;;;;21.53;5.53;;;20.30;99.90;;;;;;5059256;28;20240;-73
2021/05/29 04:56:27;;;;;;;16.87;5.77;;;20.40;99.90;;;;;;5045074;28;20197;-73
2021/05/29 04:58:54;;;;;;;17.80;5.73;;;20.50;99.90;;;;;;5057232;28;20285;-72
2021/05/29 05:01:23;;;;;;;18.17;5.80;;;20.60;99.90;;;;;;5083924;28;20191;-73
2021/05/29 05:04:01;;;;;;;15.53;5.73;;;20.70;99.90;;;;;;5062931;28;20253;-73
2021/05/29 05:06:29;;;;;;;17.77;5.57;;;20.80;99.90;;;;;;5056289;28;20226;-73
2021/05/29 05:08:56;;;;;;;15.20;5.73;;;20.70;99.90;;;;;;5060209;28;20248;-72
2021/05/29 05:11:24;;;;;;;21.10;5.87;;;20.80;99.90;;;;;;5052108;28;20992;-73
2021/05/29 05:13:50;;;;;;;20.83;5.67;;;20.80;99.90;;;;;;5055758;28;20195;-73
2021/05/29 05:16:17;;;;;;;15.97;5.30;;;20.70;99.90;;;;;;5041654;28;20260;-73
2021/05/29 05:18:45;;;;;;;18.20;6.33;;;20.60;99.90;;;;;;5037941;28;20654;-72
2021/05/29 05:21:12;;;;;;;18.50;5.20;;;20.80;99.90;;;;;;5043976;28;20191;-72
2021/05/29 05:23:38;;;;;;;12.90;5.10;;;20.80;99.90;;;;;;5056194;28;20607;-70
2021/05/29 05:26:06;;;;;;;18.43;5.90;;;20.90;99.90;;;;;;5057293;28;20659;-71
2021/05/29 05:28:33;;;;;;;20.90;5.33;;;21.10;99.90;;;;;;5057950;28;20252;-70
2021/05/29 05:31:04;;;;;;;16.60;5.10;;;21.10;99.90;;;;;;5073423;28;20708;-71
2021/05/29 05:33:34;;;;;;;16.60;5.60;;;21.20;99.90;;;;;;5064242;28;20252;-73
2021/05/29 05:36:01;;;;;;;16.90;5.37;;;21.30;99.90;;;;;;5045157;28;20187;-72
2021/05/29 05:38:27;;;;;;;16.37;5.00;;;21.40;99.90;;;;;;5062667;28;20263;-73
2021/05/29 05:40:54;;;;;;;15.73;5.10;;;21.50;99.90;;;;;;5046359;28;20190;-72
2021/05/29 05:43:20;;;;;;;21.17;5.70;;;21.40;99.90;;;;;;5045393;28;20282;-74
2021/05/29 05:45:46;;;;;;;15.93;5.20;;;21.30;99.90;;;;;;5062333;28;20710;-74
2021/05/29 05:48:13;;;;;;;18.93;5.27;;;21.30;99.90;;;;;;5062890;28;20189;-74
2021/05/29 05:50:52;;;;;;;15.93;5.73;;;21.40;99.90;;;;;;5040713;28;20179;-74
2021/05/29 05:53:24;;;;;;;12.67;4.80;;;21.40;99.90;;;;;;5044724;28;20183;-73
2021/05/29 05:56:00;;;;;;;15.40;4.80;;;21.40;99.90;;;;;;5056565;28;21072;-72
2021/05/29 05:58:29;;;;;;;15.97;4.80;;;21.50;99.90;;;;;;5059596;28;20190;-72
2021/05/29 06:00:56;;;;;;;19.77;5.17;;;21.50;99.90;;;;;;5057524;28;20480;-72
2021/05/29 06:03:23;;;;;;;19.23;5.97;;;21.60;99.90;;;;;;5056009;28;20192;-70
2021/05/29 06:05:50;;;;;;;14.17;5.33;;;21.60;99.90;;;;;;5062044;28;20273;-71
2021/05/29 06:08:18;;;;;;;15.37;5.30;;;21.60;99.90;;;;;;5055727;28;20267;-70
2021/05/29 06:10:45;;;;;;;15.80;5.47;;;21.60;99.90;;;;;;5062353;28;20183;-70
2021/05/29 06:13:15;;;;;;;16.40;5.67;;;21.70;99.90;;;;;;5061322;28;20195;-70
2021/05/29 06:21:05;;;;;;;14.03;5.67;;;21.70;99.90;;;;;;5059074;28;20201;-71
2021/05/29 06:23:31;;;;;;;15.93;5.10;;;21.80;99.90;;;;;;5043681;28;20188;-70
2021/05/29 06:25:57;;;;;;;20.17;6.10;;;22.00;99.90;;;;;;5063996;28;20212;-73
2021/05/29 06:28:24;;;;;;;17.60;5.13;;;22.20;99.90;;;;;;5058373;28;20535;-75
2021/05/29 06:30:50;;;;;;;15.33;5.33;;;22.40;99.90;;;;;;5062080;28;20924;-73
2021/05/29 06:33:16;;;;;;;14.07;5.30;;;22.50;99.90;;;;;;5061303;28;20183;-74
2021/05/29 06:35:43;;;;;;;11.63;5.17;;;22.50;99.90;;;;;;5043257;28;20187;-73
2021/05/29 06:38:09;;;;;;;11.17;4.97;;;22.70;99.90;;;;;;5054272;28;20230;-74
2021/05/29 06:40:35;;;;;;;15.17;5.20;;;22.80;99.90;;;;;;5058742;28;20195;-74
2021/05/29 06:43:02;;;;;;;20.23;5.23;;;22.80;99.90;;;;;;5060764;28;20667;-74
2021/05/29 06:45:30;;;;;;;17.77;5.20;;;23.00;99.90;;;;;;5059891;28;20222;-73
2021/05/29 06:47:58;;;;;;;15.53;5.37;;;23.00;99.90;;;;;;5062125;28;20241;-74
2021/05/29 06:50:25;;;;;;;14.23;5.10;;;23.00;99.90;;;;;;5059110;28;20278;-75
2021/05/29 06:52:54;;;;;;;17.20;5.57;;;23.00;99.90;;;;;;5059563;28;20589;-73
2021/05/29 07:00:50;;;;;;;12.47;5.37;;;23.00;99.90;;;;;;5049647;28;20200;-73
2021/05/29 07:03:17;;;;;;;20.27;6.40;;;23.10;99.90;;;;;;5058482;28;20191;-72
2021/05/29 07:05:44;;;;;;;18.93;5.97;;;23.20;99.90;;;;;;5058881;28;20218;-71
2021/05/29 07:08:11;;;;;;;17.30;6.30;;;23.10;99.90;;;;;;5060025;28;20227;-72
2021/05/29 07:10:37;;;;;;;13.87;5.70;;;23.10;99.90;;;;;;5049345;28;20612;-74
2021/05/29 07:13:05;;;;;;;17.60;6.33;;;23.20;99.90;;;;;;5052274;28;20199;-72
2021/05/29 07:15:35;;;;;;;15.90;6.53;;;23.30;99.90;;;;;;5050014;28;20222;-71
2021/05/29 07:18:07;;;;;;;16.03;6.87;;;23.20;99.90;;;;;;5051204;28;20198;-72
2021/05/29 07:20:34;;;;;;;14.73;5.57;;;23.20;99.90;;;;;;5050060;28;20195;-73
2021/05/29 07:23:01;;;;;;;17.20;6.10;;;23.40;99.90;;;;;;5051928;28;20294;-73
2021/05/29 07:25:28;;;;;;;17.50;6.27;;;23.50;99.90;;;;;;5050459;28;20254;-72
2021/05/29 07:27:55;;;;;;;17.50;6.20;;;23.60;99.90;;;;;;5050024;28;20306;-71
2021/05/29 07:30:23;;;;;;;19.97;6.27;;;23.60;99.90;;;;;;5054951;28;20192;-71
2021/05/29 07:32:50;;;;;;;24.13;7.00;;;23.60;99.90;;;;;;5049549;28;20187;-70
2021/05/29 07:35:16;;;;;;;18.83;7.40;;;23.60;99.90;;;;;;5048868;28;20198;-71
2021/05/29 07:37:43;;;;;;;16.90;7.17;;;23.50;99.90;;;;;;5047649;28;20191;-72
2021/05/29 07:40:11;;;;;;;16.70;8.03;;;23.60;99.90;;;;;;5050252;28;20571;-70
2021/05/29 07:42:38;;;;;;;19.73;7.30;;;24.00;99.90;;;;;;5079266;28;20203;-71
2021/05/29 07:45:06;;;;;;;15.67;7.10;;;24.00;99.90;;;;;;5052931;28;20221;-70
2021/05/29 07:47:33;;;;;;;18.13;7.60;;;24.20;99.90;;;;;;5048760;28;20264;-71
2021/05/29 07:49:59;;;;;;;16.03;7.30;;;24.20;99.90;;;;;;5048668;28;20555;-72
2021/05/29 07:52:26;;;;;;;19.10;6.95;;;24.20;99.90;;;;;;5052166;28;20191;-71
2021/05/29 07:54:52;;;;;;;14.80;7.30;;;24.60;99.90;;;;;;5052374;28;20282;-72
2021/05/29 07:57:18;;;;;;;19.13;7.97;;;24.30;99.90;;;;;;5048780;28;20540;-73
2021/05/29 07:59:46;;;;;;;19.17;7.20;;;24.00;99.90;;;;;;5055354;28;20563;-73
2021/05/29 08:02:12;;;;;;;25.87;7.50;;;23.90;99.90;;;;;;5053646;28;20210;-72
2021/05/29 08:04:39;;;;;;;17.23;7.43;;;24.00;99.90;;;;;;5052285;28;20655;-71
2021/05/29 08:07:06;;;;;;;24.37;7.50;;;24.20;99.90;;;;;;5050901;28;20245;-73
2021/05/29 08:09:32;;;;;;;18.27;7.60;;;24.30;99.90;;;;;;5051689;28;20430;-71
2021/05/29 08:11:59;;;;;;;18.07;8.07;;;24.50;99.90;;;;;;5050983;28;20210;-71
2021/05/29 08:14:25;;;;;;;25.10;7.47;;;24.70;99.90;;;;;;5036268;28;20195;-71
2021/05/29 08:16:52;;;;;;;18.83;7.60;;;24.40;99.90;;;;;;5049701;28;20672;-73
2021/05/29 08:19:19;;;;;;;25.00;9.03;;;24.10;99.90;;;;;;5051292;28;20667;-73
2021/05/29 08:21:49;;;;;;;22.17;8.17;;;23.80;99.90;;;;;;5048375;28;20559;-79
2021/05/29 08:24:17;;;;;;;18.70;7.80;;;24.00;99.90;;;;;;5050354;28;21103;-73
2021/05/29 08:26:44;;;;;;;14.93;7.07;;;24.30;99.90;;;;;;5051299;28;20227;-73
2021/05/29 08:29:11;;;;;;;15.43;6.87;;;24.50;99.90;;;;;;5051535;28;20379;-72
2021/05/29 08:31:38;;;;;;;23.53;6.90;;;24.80;99.90;;;;;;5040924;28;20187;-70
2021/05/29 08:34:06;;;;;;;24.50;6.78;;;25.10;99.90;;;;;;5076879;28;20192;-72
2021/05/29 08:36:32;;;;;;;17.30;6.70;;;25.10;99.90;;;;;;5062235;28;20890;-72
2021/05/29 08:38:58;;;;;;;22.50;6.80;;;24.80;99.90;;;;;;5052435;28;20549;-72
2021/05/29 08:41:26;;;;;;;14.90;6.43;;;24.70;99.90;;;;;;5046559;28;20187;-73
2021/05/29 08:43:52;;;;;;;19.10;7.40;;;24.70;99.90;;;;;;5059862;28;20194;-71
2021/05/29 08:46:19;;;;;;;14.03;7.40;;;25.00;99.90;;;;;;5058849;28;20348;-73
2021/05/29 08:48:45;;;;;;;16.17;6.07;;;24.90;99.90;;;;;;5056614;28;20206;-73
2021/05/29 08:51:18;;;;;;;17.63;7.15;;;25.10;99.90;;;;;;5059200;28;20261;-73
2021/05/29 08:53:51;;;;;;;16.23;6.90;;;25.20;99.90;;;;;;5060154;28;20191;-72
2021/05/29 08:56:21;;;;;;;16.77;6.70;;;25.50;99.90;;;;;;5043659;28;20194;-71
2021/05/29 08:58:49;;;;;;;14.57;6.53;;;25.30;99.90;;;;;;5057769;28;20275;-74
2021/05/29 09:01:19;;;;;;;23.25;7.35;;;25.60;99.90;;;;;;5059208;28;20241;-72
2021/05/29 09:04:01;;;;;;;17.63;6.47;;;25.90;99.90;;;;;;5047483;28;20642;-71
2021/05/29 09:06:30;;;;;;;16.92;6.38;;;25.90;99.90;;;;;;5066091;28;20294;-71
2021/05/29 09:09:18;;;;;;;15.52;6.55;;;25.90;99.90;;;;;;5063363;28;20320;-72
2021/05/29 09:11:53;;;;;;;12.32;6.60;;;26.00;99.90;;;;;;5061206;28;20574;-73
2021/05/29 09:17:24;;;;;;;13.57;6.30;;;26.30;99.90;;;;;;5086780;28;20187;-73
2021/05/29 09:20:00;;;;;;;11.05;6.32;;;26.50;99.90;;;;;;5061298;28;20187;-71
2021/05/29 09:22:52;;;;;;;13.80;6.30;;;26.30;99.90;;;;;;5064474;28;20516;-72
2021/05/29 09:25:23;;;;;;;16.77;6.05;;;26.60;99.90;;;;;;5059652;28;20641;-70
2021/05/29 09:27:59;;;;;;;19.88;6.18;;;26.70;99.90;;;;;;5074157;28;20675;-74
2021/05/29 09:30:45;;;;;;;14.18;5.50;;;26.80;99.90;;;;;;5063108;28;20259;-73
2021/05/29 09:33:31;;;;;;;12.63;5.50;;;27.10;99.90;;;;;;5049866;28;20191;-71
2021/05/29 09:36:05;;;;;;;20.10;6.35;;;26.90;99.90;;;;;;5064211;28;20190;-72
2021/05/29 09:38:46;;;;;;;13.52;6.03;;;27.00;99.90;;;;;;5049038;28;20214;-75
2021/05/29 09:41:30;;;;;;;14.35;5.57;;;26.90;99.90;;;;;;5055291;28;20245;-75
2021/05/29 09:44:06;;;;;;;14.32;5.65;;;27.10;99.90;;;;;;5065969;28;20603;-73
2021/05/29 09:46:56;;;;;;;15.65;5.40;;;27.10;99.90;;;;;;5078164;28;20242;-74
2021/05/29 09:49:48;;;;;;;15.13;5.85;;;27.20;99.90;;;;;;5060473;28;20187;-72
2021/05/29 09:52:40;;;;;;;14.80;4.90;;;27.20;99.90;;;;;;5063356;28;20229;-71
2021/05/29 09:55:13;;;;;;;13.57;5.55;;;27.20;99.90;;;;;;5085459;28;20192;-72
2021/05/29 09:57:58;;;;;;;18.70;6.07;;;27.20;99.90;;;;;;5043455;28;21018;-71
2021/05/29 10:00:40;;;;;;;15.27;6.05;;;27.30;99.90;;;;;;5051907;28;20533;-73
2021/05/29 10:03:08;;;;;;;13.32;5.63;;;27.50;99.90;;;;;;5063045;28;20647;-72
2021/05/29 10:05:37;;;;;;;12.80;5.60;;;27.70;99.90;;;;;;5044499;28;20508;-73
2021/05/29 10:08:05;;;;;;;15.98;5.43;;;27.60;99.90;;;;;;5059653;28;20669;-72
2021/05/29 10:10:35;;;;;;;19.80;6.05;;;27.50;99.90;;;;;;5063298;28;20221;-72
2021/05/29 10:13:02;;;;;;;17.55;5.47;;;27.80;99.90;;;;;;5060118;28;20227;-73
2021/05/29 10:15:30;;;;;;;14.65;5.53;;;27.70;99.90;;;;;;5046530;28;20348;-71
2021/05/29 10:18:03;;;;;;;12.18;5.28;;;28.10;99.90;;;;;;5063058;28;20202;-72
2021/05/29 10:20:32;;;;;;;17.20;5.43;;;27.90;99.90;;;;;;5064508;28;20547;-72
2021/05/29 10:23:00;;;;;;;16.25;5.72;;;27.90;99.90;;;;;;5061521;28;21054;-73
2021/05/29 10:25:27;;;;;;;12.63;5.30;;;27.80;99.90;;;;;;5046590;28;20225;-73
2021/05/29 10:27:56;;;;;;;17.85;5.63;;;28.00;99.90;;;;;;5045789;28;21068;-73
2021/05/29 10:30:25;;;;;;;14.60;4.70;;;28.00;99.90;;;;;;5062956;28;20302;-73
2021/05/29 10:33:16;;;;;;;14.88;5.50;;;27.80;99.90;;;;;;5056482;28;20868;-74
2021/05/29 10:35:44;;;;;;;15.77;5.32;;;27.80;99.90;;;;;;5059754;28;20207;-71
2021/05/29 10:38:13;;;;;;;16.27;5.45;;;27.50;99.90;;;;;;5055839;28;20734;-73
2021/05/29 10:40:47;;;;;;;17.38;5.30;;;27.60;99.90;;;;;;5054584;28;20195;-72
2021/05/29 10:43:29;;;;;;;15.55;5.07;;;27.70;99.90;;;;;;5058156;28;20194;-73
2021/05/29 10:45:56;;;;;;;18.92;5.50;;;27.60;99.90;;;;;;5063059;28;20198;-72
2021/05/29 10:48:23;;;;;;;15.02;5.03;;;27.50;99.90;;;;;;5056144;28;20212;-73
2021/05/29 10:51:03;;;;;;;17.40;4.93;;;27.50;99.90;;;;;;5059276;28;20183;-72
2021/05/29 10:54:12;;;;;;;15.18;5.22;;;27.70;99.90;;;;;;5057842;28;20193;-74
2021/05/29 10:56:38;;;;;;;16.55;5.22;;;27.70;99.90;;;;;;5045538;28;20183;-73
2021/05/29 10:59:18;;;;;;;12.38;4.82;;;27.50;99.90;;;;;;5058358;28;20207;-71
2021/05/29 11:01:45;;;;;;;19.63;5.35;;;27.50;99.90;;;;;;5058903;28;20472;-70
2021/05/29 11:04:18;;;;;;;14.82;4.80;;;27.50;99.90;;;;;;5054857;28;20199;-72
2021/05/29 11:07:19;;;;;;;19.80;5.15;;;27.50;99.90;;;;;;5056312;28;20265;-72
2021/05/29 11:09:53;;;;;;;24.52;5.13;;;27.50;99.90;;;;;;5059015;28;20204;-72
2021/05/29 11:12:20;;;;;;;17.48;4.80;;;27.40;99.90;;;;;;5057191;28;20187;-71
2021/05/29 11:14:58;;;;;;;14.45;4.72;;;27.60;99.90;;;;;;5059151;28;20275;-72
2021/05/29 11:17:26;;;;;;;16.73;5.13;;;27.40;99.90;;;;;;5044674;28;20725;-72
2021/05/29 11:20:21;;;;;;;14.38;5.18;;;27.60;99.90;;;;;;5059638;28;20192;-72
2021/05/29 11:22:50;;;;;;;19.48;4.80;;;27.60;99.90;;;;;;5055351;28;20940;-72
2021/05/29 11:25:23;;;;;;;16.30;4.97;;;27.60;99.90;;;;;;5053845;28;20537;-71
2021/05/29 11:27:50;;;;;;;18.38;5.40;;;27.70;99.90;;;;;;5053026;28;20199;-73
2021/05/29 11:30:32;;;;;;;12.57;5.07;;;27.70;99.90;;;;;;5048393;28;20198;-72
2021/05/29 11:35:47;;;;;;;13.73;4.80;;;27.50;99.90;;;;;;5052818;28;20285;-73
2021/05/29 11:38:31;;;;;;;18.98;4.70;;;27.50;99.90;;;;;;5037322;28;20191;-73
2021/05/29 11:41:17;;;;;;;15.38;5.18;;;27.60;99.90;;;;;;5055386;28;20600;-71
2021/05/29 11:43:48;;;;;;;14.35;4.47;;;27.40;99.90;;;;;;5085816;28;20195;-72
2021/05/29 11:46:26;;;;;;;11.98;5.13;;;27.30;99.90;;;;;;5042707;28;20741;-72
2021/05/29 11:49:07;;;;;;;14.95;5.03;;;27.30;99.90;;;;;;5042123;28;20610;-72
2021/05/29 11:51:38;;;;;;;16.35;5.20;;;27.30;99.90;;;;;;5045168;28;20277;-71
2021/05/29 11:54:09;;;;;;;18.77;5.10;;;27.40;99.90;;;;;;5045973;28;20236;-72
2021/05/29 11:56:54;;;;;;;20.48;5.63;;;27.60;99.90;;;;;;5058056;28;20760;-73
2021/05/29 11:59:22;;;;;;;13.02;4.82;;;27.30;99.90;;;;;;5060479;28;20182;-73
2021/05/29 12:01:53;;;;;;;14.65;5.10;;;27.60;99.90;;;;;;5039179;28;20197;-72
2021/05/29 12:04:28;;;;;;;16.45;5.63;;;27.50;99.90;;;;;;5054298;28;20287;-73
2021/05/29 12:07:06;;;;;;;13.52;4.88;;;27.60;99.90;;;;;;5060437;28;20875;-73
2021/05/29 12:09:42;;;;;;;13.52;5.78;;;27.80;99.90;;;;;;5056784;28;20736;-73
2021/05/29 12:12:13;;;;;;;12.50;5.57;;;27.70;99.90;;;;;;5055318;28;20335;-74
2021/05/29 12:14:42;;;;;;;13.07;5.20;;;27.60;99.90;;;;;;5053569;28;20218;-73
2021/05/29 12:17:16;;;;;;;15.45;5.35;;;27.30;99.90;;;;;;5055553;28;20271;-73
2021/05/29 12:19:54;;;;;;;11.68;4.47;;;27.60;99.90;;;;;;5043358;28;20195;-72
2021/05/29 12:22:31;;;;;;;13.70;4.63;;;27.50;99.90;;;;;;5060227;28;20210;-72
2021/05/29 12:25:11;;;;;;;11.35;4.90;;;27.40;99.90;;;;;;5055108;28;20198;-74
2021/05/29 12:27:43;;;;;;;15.40;5.15;;;27.40;99.90;;;;;;5034559;28;20238;-74
2021/05/29 12:30:16;;;;;;;13.07;5.00;;;27.40;99.90;;;;;;5054218;28;20190;-72
2021/05/29 12:32:48;;;;;;;14.48;5.18;;;27.30;99.90;;;;;;5053428;28;20183;-71
2021/05/29 12:35:37;;;;;;;16.50;5.68;;;27.40;99.90;;;;;;5057040;28;20372;-73
2021/05/29 12:38:18;;;;;;;9.18;4.90;;;27.20;99.90;;;;;;5055900;28;20191;-74
2021/05/29 12:41:15;;;;;;;13.60;4.95;;;26.80;99.90;;;;;;5059553;28;20187;-73
2021/05/29 12:43:42;;;;;;;13.40;5.25;;;27.40;99.90;;;;;;5049025;28;20570;-73
2021/05/29 12:46:28;;;;;;;17.90;5.18;;;27.50;99.90;;;;;;5058975;28;20248;-73
2021/05/29 12:49:13;;;;;;;17.40;5.00;;;27.30;99.90;;;;;;5058816;28;20827;-72
2021/05/29 12:51:48;;;;;;;11.40;5.20;;;27.50;99.90;;;;;;5052234;28;20196;-73
2021/05/29 12:54:16;;;;;;;11.75;4.90;;;27.20;99.90;;;;;;5040945;28;20178;-73
2021/05/29 12:56:57;;;;;;;14.45;4.63;;;27.30;99.90;;;;;;5053076;28;20244;-72
2021/05/29 12:59:27;;;;;;;12.52;5.05;;;27.40;99.90;;;;;;5058629;28;20179;-73
2021/05/29 13:07:35;;;;;;;11.00;5.10;;;27.20;99.90;;;;;;5053615;28;21006;-72
2021/05/29 13:10:18;;;;;;;12.77;5.57;;;27.20;99.90;;;;;;5057850;28;20213;-72
2021/05/29 13:13:06;;;;;;;10.25;5.47;;;27.20;99.90;;;;;;5043626;28;20274;-74
2021/05/29 13:15:35;;;;;;;11.50;5.28;;;27.00;99.90;;;;;;5057368;28;20187;-73